Time;durP1;ratioP1;P1;durP2;ratioP2;P2;SDS_P1;SDS_P2;PMS_P1;PMS_P2;Temp;Humidity;BMP_temperature;BMP_pressure;BME280_temperature;BME280_humidity;BME280_pressure;Samples;Min_cycle;Max_cycle;Signal;HPM_P1;HPM_P2
2023/06/29 00:01:55;;;;;;;7.37;6.70;;;20.50;99.90;;;;;;5078118;28;20512;-78
2023/06/29 00:04:25;;;;;;;6.57;4.87;;;20.50;99.90;;;;;;5080123;28;20470;-78
2023/06/29 00:06:52;;;;;;;5.30;4.13;;;20.50;99.90;;;;;;5068879;28;20477;-78
2023/06/29 00:09:19;;;;;;;4.80;3.50;;;20.50;99.90;;;;;;5063122;28;20466;-78
2023/06/29 00:11:46;;;;;;;5.00;4.33;;;20.50;99.90;;;;;;5063924;28;20467;-78
2023/06/29 00:14:13;;;;;;;4.03;3.63;;;20.50;99.90;;;;;;5069494;28;20471;-78
2023/06/29 00:16:40;;;;;;;4.23;3.83;;;20.50;99.90;;;;;;5066953;28;20532;-77
2023/06/29 00:19:08;;;;;;;4.87;4.27;;;20.50;99.90;;;;;;5078915;28;20446;-79
2023/06/29 00:21:36;;;;;;;5.27;3.93;;;20.50;99.90;;;;;;5075783;28;20466;-77
2023/06/29 00:24:04;;;;;;;4.83;4.33;;;20.40;99.90;;;;;;5086602;28;20630;-79
2023/06/29 00:26:31;;;;;;;3.53;3.13;;;20.50;99.90;;;;;;5087739;28;20531;-79
2023/06/29 00:28:58;;;;;;;4.40;3.90;;;20.40;99.90;;;;;;5089095;28;20461;-78
2023/06/29 00:31:26;;;;;;;4.60;3.67;;;20.40;99.90;;;;;;5086785;28;20509;-79
2023/06/29 00:33:56;;;;;;;4.33;3.93;;;20.40;99.90;;;;;;5083335;28;20970;-78
2023/06/29 00:36:30;;;;;;;4.33;3.97;;;20.40;99.90;;;;;;5076070;28;20465;-78
2023/06/29 00:39:05;;;;;;;7.00;3.60;;;20.30;99.90;;;;;;5088492;28;20465;-78
2023/06/29 00:41:37;;;;;;;4.90;4.10;;;20.30;99.90;;;;;;5084190;28;20464;-79
2023/06/29 00:44:05;;;;;;;5.53;4.30;;;20.30;99.90;;;;;;5076952;28;20556;-79
2023/06/29 00:46:33;;;;;;;5.17;3.80;;;20.30;99.90;;;;;;5077345;28;20939;-78
2023/06/29 00:49:19;;;;;;;9.83;5.30;;;20.30;99.90;;;;;;5087086;28;20535;-79
2023/06/29 00:51:49;;;;;;;5.33;4.80;;;20.20;99.90;;;;;;5082192;28;20473;-79
2023/06/29 00:54:22;;;;;;;13.77;4.87;;;20.20;99.90;;;;;;5079563;28;20554;-78
2023/06/29 00:56:53;;;;;;;5.03;4.63;;;20.10;99.90;;;;;;5091425;28;20541;-78
2023/06/29 00:59:21;;;;;;;5.93;5.43;;;20.20;99.90;;;;;;5081814;28;20472;-77
2023/06/29 01:01:52;;;;;;;5.03;4.50;;;20.10;99.90;;;;;;5078211;28;20480;-78
2023/06/29 01:04:22;;;;;;;5.87;4.60;;;20.10;99.90;;;;;;5071540;28;20466;-77
2023/06/29 01:06:56;;;;;;;5.70;5.10;;;20.00;99.90;;;;;;5075447;28;20469;-78
2023/06/29 01:09:25;;;;;;;4.63;4.23;;;20.00;99.90;;;;;;5073920;28;20862;-79
2023/06/29 01:11:53;;;;;;;4.90;4.33;;;20.10;99.90;;;;;;5072650;28;20974;-79
2023/06/29 01:14:22;;;;;;;6.10;5.50;;;20.00;99.90;;;;;;5072609;28;20478;-79
2023/06/29 01:16:51;;;;;;;6.50;5.10;;;20.00;99.90;;;;;;5073065;28;20470;-80
2023/06/29 01:19:24;;;;;;;5.83;5.27;;;19.90;99.90;;;;;;5072128;28;20463;-77
2023/06/29 01:21:58;;;;;;;6.03;5.30;;;19.90;99.90;;;;;;5073119;28;20528;-77
2023/06/29 01:24:31;;;;;;;6.47;5.37;;;19.90;99.90;;;;;;5072675;28;20474;-79
2023/06/29 01:26:59;;;;;;;6.03;5.50;;;19.90;99.90;;;;;;5073001;28;20471;-79
2023/06/29 01:29:26;;;;;;;6.60;6.10;;;19.90;99.90;;;;;;5089151;28;20489;-77
2023/06/29 01:32:00;;;;;;;6.50;5.90;;;19.90;99.90;;;;;;5093204;28;20855;-79
2023/06/29 01:34:28;;;;;;;6.17;5.53;;;19.90;99.90;;;;;;5089636;28;20476;-77
2023/06/29 01:37:02;;;;;;;5.73;5.23;;;19.80;99.90;;;;;;5093056;28;20501;-79
2023/06/29 01:39:42;;;;;;;6.90;5.93;;;19.80;99.90;;;;;;5092424;28;20526;-79
2023/06/29 01:42:12;;;;;;;5.43;4.73;;;19.80;99.90;;;;;;5093080;28;20465;-79
2023/06/29 01:44:39;;;;;;;6.80;6.10;;;19.80;99.90;;;;;;5081619;28;20469;-77
2023/06/29 01:47:08;;;;;;;9.20;5.97;;;19.80;99.90;;;;;;5092319;28;20484;-77
2023/06/29 01:49:36;;;;;;;6.37;5.80;;;19.80;99.90;;;;;;5074822;28;20462;-78
2023/06/29 01:52:04;;;;;;;6.50;5.90;;;19.80;99.90;;;;;;5072822;28;20544;-79
2023/06/29 01:54:31;;;;;;;6.90;6.40;;;19.80;99.90;;;;;;5072383;28;20528;-78
2023/06/29 01:56:58;;;;;;;6.43;5.87;;;19.70;99.90;;;;;;5072937;28;20535;-80
2023/06/29 01:59:26;;;;;;;9.23;6.27;;;19.70;99.90;;;;;;5070211;28;20880;-79
2023/06/29 02:01:54;;;;;;;6.47;5.83;;;19.70;99.90;;;;;;5086217;28;20947;-79
2023/06/29 02:04:21;;;;;;;7.30;6.57;;;19.60;99.90;;;;;;5098680;28;20482;-78
2023/06/29 02:06:48;;;;;;;7.33;6.40;;;19.60;99.90;;;;;;5094468;28;20518;-77
2023/06/29 02:09:15;;;;;;;6.50;5.90;;;19.60;99.90;;;;;;5096474;28;20489;-76
2023/06/29 02:11:43;;;;;;;11.33;5.87;;;19.50;99.90;;;;;;5096085;28;20582;-79
2023/06/29 02:14:10;;;;;;;6.63;6.03;;;19.50;99.90;;;;;;5092268;28;20476;-79
2023/06/29 02:16:38;;;;;;;6.37;5.77;;;19.50;99.90;;;;;;5104724;28;20465;-79
2023/06/29 02:19:05;;;;;;;5.50;5.00;;;19.50;99.90;;;;;;5080443;28;20967;-78
2023/06/29 02:21:32;;;;;;;7.50;6.80;;;19.50;99.90;;;;;;5075446;28;20467;-78
2023/06/29 02:24:01;;;;;;;6.17;5.57;;;19.40;99.90;;;;;;5075792;28;20532;-79
2023/06/29 02:26:28;;;;;;;6.63;5.67;;;19.50;99.90;;;;;;5075540;28;20502;-77
2023/06/29 02:28:54;;;;;;;7.27;5.77;;;19.40;99.90;;;;;;5075331;28;20492;-77
2023/06/29 02:31:21;;;;;;;8.00;6.27;;;19.40;99.90;;;;;;5076066;28;20470;-77
2023/06/29 02:33:50;;;;;;;7.27;5.73;;;19.30;99.90;;;;;;5064692;28;20478;-76
2023/06/29 02:36:20;;;;;;;5.50;5.10;;;19.30;99.90;;;;;;5075990;28;20470;-77
2023/06/29 02:38:47;;;;;;;9.80;6.13;;;19.30;99.90;;;;;;5075178;28;20462;-77
2023/06/29 02:41:15;;;;;;;8.30;6.10;;;19.30;99.90;;;;;;5075764;28;20466;-79
2023/06/29 02:43:42;;;;;;;6.30;5.70;;;19.30;99.90;;;;;;5075024;28;20537;-79
2023/06/29 02:46:09;;;;;;;5.87;5.37;;;19.30;99.90;;;;;;5075398;28;20474;-76
2023/06/29 02:48:36;;;;;;;5.67;5.17;;;19.30;99.90;;;;;;5075065;28;20809;-76
2023/06/29 02:51:05;;;;;;;6.90;6.17;;;19.30;99.90;;;;;;5075524;28;20800;-77
2023/06/29 02:53:32;;;;;;;6.20;5.60;;;19.30;99.90;;;;;;5074262;28;20486;-79
2023/06/29 02:56:00;;;;;;;6.60;5.90;;;19.30;99.90;;;;;;5075214;28;20482;-78
2023/06/29 02:58:27;;;;;;;7.07;6.40;;;19.30;99.90;;;;;;5075271;28;20498;-79
2023/06/29 03:00:58;;;;;;;7.00;6.30;;;19.30;99.90;;;;;;5074621;28;20454;-79
2023/06/29 03:03:25;;;;;;;5.93;5.40;;;19.20;99.90;;;;;;5075423;28;20470;-78
2023/06/29 03:05:52;;;;;;;5.87;5.27;;;19.30;99.90;;;;;;5074914;28;20470;-78
2023/06/29 03:08:21;;;;;;;6.17;5.63;;;19.30;99.90;;;;;;5073837;28;20494;-79
2023/06/29 03:10:51;;;;;;;6.10;5.60;;;19.30;99.90;;;;;;5063938;28;20971;-77
2023/06/29 03:13:21;;;;;;;6.03;5.53;;;19.30;99.90;;;;;;5074466;28;20877;-77
2023/06/29 03:15:48;;;;;;;6.43;5.83;;;19.30;99.90;;;;;;5074106;28;20980;-79
2023/06/29 03:18:15;;;;;;;5.93;5.43;;;19.30;99.90;;;;;;5073920;28;20509;-77
2023/06/29 03:20:42;;;;;;;4.90;4.50;;;19.40;99.90;;;;;;5074586;28;20986;-77
2023/06/29 03:23:09;;;;;;;6.03;5.43;;;19.40;99.90;;;;;;5074888;28;20478;-79
2023/06/29 03:25:37;;;;;;;6.50;5.90;;;19.40;99.90;;;;;;5073880;28;20497;-77
2023/06/29 03:28:05;;;;;;;5.67;5.27;;;19.40;99.90;;;;;;5074298;28;20458;-78
2023/06/29 03:30:32;;;;;;;4.70;4.37;;;19.40;99.90;;;;;;5074399;28;20551;-79
2023/06/29 03:33:00;;;;;;;5.30;4.87;;;19.40;99.90;;;;;;5074344;28;20470;-79
2023/06/29 03:35:29;;;;;;;5.70;5.17;;;19.40;99.90;;;;;;5074099;28;20513;-77
2023/06/29 03:37:57;;;;;;;5.90;5.40;;;19.40;99.90;;;;;;5074024;28;20470;-79
2023/06/29 03:40:24;;;;;;;6.07;5.60;;;19.40;99.90;;;;;;5074322;28;20481;-79
2023/06/29 03:42:52;;;;;;;6.80;5.37;;;19.40;99.90;;;;;;5063232;28;20525;-79
2023/06/29 03:45:20;;;;;;;6.67;6.07;;;19.50;99.90;;;;;;5074634;28;20861;-79
2023/06/29 03:47:49;;;;;;;7.60;5.70;;;19.50;99.90;;;;;;5073951;28;20466;-78
2023/06/29 03:50:18;;;;;;;5.40;4.90;;;19.50;99.90;;;;;;5074261;28;20463;-78
2023/06/29 03:52:45;;;;;;;5.73;5.23;;;19.50;99.90;;;;;;5073054;28;20474;-77
2023/06/29 03:55:12;;;;;;;5.30;4.90;;;19.50;99.90;;;;;;5073888;28;20479;-76
2023/06/29 03:57:39;;;;;;;5.30;4.80;;;19.50;99.90;;;;;;5074557;28;20956;-79
2023/06/29 04:00:10;;;;;;;6.03;5.43;;;19.50;99.90;;;;;;5073579;28;20515;-77
2023/06/29 04:02:36;;;;;;;4.30;3.90;;;19.50;99.90;;;;;;5074081;28;20466;-77
2023/06/29 04:05:05;;;;;;;8.40;5.00;;;19.50;99.90;;;;;;5072939;28;20544;-77
2023/06/29 04:07:32;;;;;;;5.47;4.70;;;19.60;99.90;;;;;;5074077;28;20470;-77
2023/06/29 04:09:59;;;;;;;5.63;5.10;;;19.60;99.90;;;;;;5073514;28;20462;-77
2023/06/29 04:12:26;;;;;;;7.97;5.37;;;19.60;99.90;;;;;;5073972;28;20466;-77
2023/06/29 04:14:53;;;;;;;5.27;4.77;;;19.60;99.90;;;;;;5073397;28;20470;-79
2023/06/29 04:17:23;;;;;;;6.60;5.63;;;19.70;99.90;;;;;;5073802;28;20519;-79
2023/06/29 04:19:53;;;;;;;4.90;4.50;;;19.70;99.90;;;;;;5072368;28;20777;-78
2023/06/29 04:22:20;;;;;;;5.33;4.57;;;19.80;99.90;;;;;;5073722;28;20458;-77
2023/06/29 04:24:49;;;;;;;6.50;4.87;;;19.80;99.90;;;;;;5073736;28;20493;-78
2023/06/29 04:27:17;;;;;;;6.47;5.80;;;19.90;99.90;;;;;;5073587;28;20545;-79
2023/06/29 04:29:47;;;;;;;6.67;5.30;;;19.90;99.90;;;;;;5072577;28;20489;-80
2023/06/29 04:32:17;;;;;;;5.07;4.67;;;20.00;99.90;;;;;;5073089;28;20920;-78
2023/06/29 04:34:47;;;;;;;5.23;4.10;;;20.00;99.90;;;;;;5073641;28;20983;-78
2023/06/29 04:37:14;;;;;;;5.03;4.57;;;20.00;99.90;;;;;;5073413;28;20534;-79
2023/06/29 04:39:41;;;;;;;7.00;5.00;;;20.00;99.90;;;;;;5073776;28;20466;-78
2023/06/29 04:42:13;;;;;;;5.83;5.20;;;20.00;99.90;;;;;;5072017;28;20989;-79
2023/06/29 04:44:40;;;;;;;6.47;5.87;;;20.10;99.90;;;;;;5073396;28;20840;-77
2023/06/29 04:47:08;;;;;;;4.43;4.13;;;20.10;99.90;;;;;;5072247;28;20470;-77
2023/06/29 04:49:36;;;;;;;5.20;4.87;;;20.10;99.90;;;;;;5073539;28;20458;-77
2023/06/29 04:52:05;;;;;;;5.23;4.73;;;20.10;99.90;;;;;;5073018;28;20475;-77
2023/06/29 04:54:33;;;;;;;6.13;4.17;;;20.10;99.90;;;;;;5062529;28;20475;-77
2023/06/29 04:56:59;;;;;;;4.80;4.43;;;20.20;99.90;;;;;;5072713;28;20474;-80
2023/06/29 04:59:38;;;;;;;7.83;5.23;;;20.20;99.90;;;;;;5072846;28;20478;-76
2023/06/29 05:02:05;;;;;;;5.30;4.90;;;20.20;99.90;;;;;;5073269;28;20465;-79
2023/06/29 05:04:32;;;;;;;4.77;4.30;;;20.30;99.90;;;;;;5072569;28;20507;-77
2023/06/29 05:07:15;;;;;;;5.80;5.30;;;20.30;99.90;;;;;;5071195;28;20466;-76
2023/06/29 05:09:42;;;;;;;8.93;5.93;;;20.40;99.90;;;;;;5073175;28;20512;-77
2023/06/29 05:12:11;;;;;;;6.90;5.53;;;20.40;99.90;;;;;;5060809;28;20460;-80
2023/06/29 05:14:43;;;;;;;8.27;4.90;;;20.40;99.90;;;;;;5067087;28;20470;-78
2023/06/29 05:17:10;;;;;;;5.83;5.33;;;20.50;99.90;;;;;;5072362;28;20519;-79
2023/06/29 05:19:37;;;;;;;6.50;5.10;;;20.60;99.90;;;;;;5073135;28;20467;-77
2023/06/29 05:22:05;;;;;;;5.23;4.83;;;20.60;99.90;;;;;;5072902;28;21026;-81
2023/06/29 05:24:33;;;;;;;5.70;5.20;;;20.70;99.90;;;;;;5072743;28;20501;-78
2023/06/29 05:27:00;;;;;;;7.47;5.60;;;20.80;99.90;;;;;;5072390;28;20792;-80
2023/06/29 05:29:27;;;;;;;4.50;4.20;;;20.80;99.90;;;;;;5072399;28;20863;-79
2023/06/29 05:31:54;;;;;;;5.70;5.10;;;20.90;99.90;;;;;;5072204;28;20470;-77
2023/06/29 05:34:24;;;;;;;8.10;5.90;;;21.00;99.90;;;;;;5073211;28;20482;-79
2023/06/29 05:36:51;;;;;;;7.00;6.17;;;21.10;99.90;;;;;;5072200;28;20467;-78
2023/06/29 05:39:18;;;;;;;8.10;6.00;;;21.20;99.90;;;;;;5061662;28;20801;-78
2023/06/29 05:41:47;;;;;;;4.87;4.47;;;21.30;99.90;;;;;;5074834;28;20869;-77
2023/06/29 05:44:14;;;;;;;4.80;4.40;;;21.40;99.90;;;;;;5075906;28;20866;-79
2023/06/29 05:46:41;;;;;;;4.83;4.10;;;21.50;99.90;;;;;;5076633;28;20474;-79
2023/06/29 05:49:08;;;;;;;4.90;3.93;;;21.60;99.90;;;;;;5065666;28;20470;-79
2023/06/29 05:51:55;;;;;;;5.60;4.20;;;21.70;99.90;;;;;;5070160;28;20468;-80
2023/06/29 05:54:23;;;;;;;5.50;5.00;;;21.90;99.90;;;;;;5073627;28;20470;-78
2023/06/29 05:56:51;;;;;;;6.40;5.30;;;21.90;99.90;;;;;;5074495;28;20474;-78
2023/06/29 05:59:18;;;;;;;6.20;4.40;;;22.00;99.90;;;;;;5075423;28;20523;-80
2023/06/29 06:01:47;;;;;;;4.40;4.00;;;22.10;99.90;;;;;;5075974;28;20470;-80
2023/06/29 06:04:24;;;;;;;5.10;4.43;;;22.10;99.90;;;;;;5074950;28;20470;-78
2023/06/29 06:06:58;;;;;;;5.07;4.67;;;22.20;99.90;;;;;;5078361;28;20473;-77
2023/06/29 06:09:27;;;;;;;4.57;4.00;;;22.30;99.90;;;;;;5077123;28;20474;-78
2023/06/29 06:11:57;;;;;;;5.40;4.70;;;22.30;99.90;;;;;;5076133;28;20462;-79
2023/06/29 06:14:24;;;;;;;6.80;6.10;;;22.40;99.90;;;;;;5075339;28;20781;-78
2023/06/29 06:16:51;;;;;;;7.70;5.50;;;22.50;99.90;;;;;;5076138;28;20474;-79
2023/06/29 06:19:18;;;;;;;5.83;4.73;;;22.70;99.90;;;;;;5075395;28;20466;-77
2023/06/29 06:21:45;;;;;;;6.10;5.27;;;22.80;99.90;;;;;;5075996;28;20475;-79
2023/06/29 06:24:13;;;;;;;5.63;5.03;;;22.90;99.90;;;;;;5075501;28;20987;-76
2023/06/29 06:26:43;;;;;;;7.90;5.37;;;23.00;99.90;;;;;;5045840;28;20549;-79
2023/06/29 06:29:11;;;;;;;8.47;6.23;;;23.10;99.90;;;;;;5065891;28;20800;-79
2023/06/29 06:31:38;;;;;;;8.30;4.70;;;23.30;99.90;;;;;;5076089;28;20462;-79
2023/06/29 06:34:05;;;;;;;9.30;5.00;;;23.40;99.90;;;;;;5075221;28;20466;-79
2023/06/29 06:36:33;;;;;;;7.87;4.87;;;23.60;99.90;;;;;;5076005;28;20466;-79
2023/06/29 06:39:00;;;;;;;8.17;4.97;;;23.80;99.90;;;;;;5065135;28;20515;-80
2023/06/29 06:41:29;;;;;;;8.60;4.40;;;24.00;99.90;;;;;;5074381;28;20471;-79
2023/06/29 06:43:59;;;;;;;7.20;5.13;;;24.20;99.90;;;;;;5075452;28;20470;-78
2023/06/29 06:46:27;;;;;;;5.57;5.00;;;24.40;99.90;;;;;;5063314;28;20459;-78
2023/06/29 06:48:54;;;;;;;4.93;4.43;;;24.60;99.90;;;;;;5070749;28;20497;-77
2023/06/29 06:51:21;;;;;;;5.13;4.63;;;24.70;99.90;;;;;;5074902;28;20497;-79
2023/06/29 06:53:48;;;;;;;8.03;4.93;;;24.80;99.90;;;;;;5074212;28;20466;-79
2023/06/29 06:56:17;;;;;;;6.03;4.43;;;25.00;99.90;;;;;;5074653;28;20478;-79
2023/06/29 06:58:44;;;;;;;4.80;4.37;;;25.00;99.90;;;;;;5075449;28;20507;-79
2023/06/29 07:01:13;;;;;;;6.80;5.07;;;25.10;99.90;;;;;;5064039;28;20474;-77
2023/06/29 07:03:41;;;;;;;8.60;5.63;;;25.20;99.90;;;;;;5074956;28;20454;-79
2023/06/29 07:06:09;;;;;;;6.67;5.90;;;25.10;99.90;;;;;;5074623;28;20482;-78
2023/06/29 07:08:37;;;;;;;8.90;6.00;;;25.10;99.90;;;;;;5064490;28;20528;-77
2023/06/29 07:11:04;;;;;;;15.10;6.57;;;25.10;99.90;;;;;;5070864;28;20520;-77
2023/06/29 07:13:32;;;;;;;5.57;4.67;;;25.00;99.90;;;;;;5075962;28;20837;-79
2023/06/29 07:15:59;;;;;;;6.47;5.80;;;25.00;99.90;;;;;;5074253;28;20540;-80
2023/06/29 07:18:26;;;;;;;6.67;6.07;;;24.90;99.90;;;;;;5074860;28;20868;-80
2023/06/29 07:20:54;;;;;;;5.60;5.10;;;24.90;99.90;;;;;;5074571;28;20490;-78
2023/06/29 07:23:21;;;;;;;6.97;5.27;;;24.80;99.90;;;;;;5074626;28;20490;-78
2023/06/29 07:25:50;;;;;;;6.73;5.97;;;24.70;99.90;;;;;;5074527;28;20960;-79
2023/06/29 07:28:17;;;;;;;6.27;5.63;;;24.60;99.90;;;;;;5054786;28;20458;-78
2023/06/29 07:30:50;;;;;;;6.00;5.17;;;24.60;99.90;;;;;;5055002;28;20529;-79
2023/06/29 07:33:17;;;;;;;4.40;4.00;;;24.50;99.90;;;;;;5044007;28;20467;-80
2023/06/29 07:35:44;;;;;;;7.03;4.07;;;24.40;99.90;;;;;;5048528;28;20500;-78
2023/06/29 07:38:12;;;;;;;4.33;4.03;;;24.40;99.90;;;;;;5056397;28;20529;-80
2023/06/29 07:40:39;;;;;;;5.90;4.97;;;24.30;99.90;;;;;;5054784;28;20475;-80
2023/06/29 07:43:07;;;;;;;4.07;3.77;;;24.30;99.90;;;;;;5053765;28;20471;-78
2023/06/29 07:45:34;;;;;;;4.80;3.80;;;24.20;99.90;;;;;;5054181;28;20471;-80
2023/06/29 07:48:01;;;;;;;5.33;4.73;;;24.20;99.90;;;;;;5054062;28;20987;-78
2023/06/29 07:50:28;;;;;;;4.40;3.43;;;24.20;99.90;;;;;;5054033;28;20471;-78
2023/06/29 07:52:55;;;;;;;3.80;3.50;;;24.20;99.90;;;;;;5054309;28;20479;-79
2023/06/29 07:55:23;;;;;;;4.80;4.40;;;24.20;99.90;;;;;;5053750;28;20529;-78
2023/06/29 07:57:50;;;;;;;6.40;4.43;;;24.10;99.90;;;;;;5054671;28;20467;-79
2023/06/29 08:00:18;;;;;;;4.17;3.80;;;24.10;99.90;;;;;;5054972;28;20975;-79
2023/06/29 08:02:51;;;;;;;5.10;4.60;;;24.10;99.90;;;;;;5055564;28;20469;-79
2023/06/29 08:05:18;;;;;;;3.73;3.27;;;24.00;99.90;;;;;;5054061;28;20812;-79
2023/06/29 08:07:46;;;;;;;4.10;3.80;;;24.10;99.90;;;;;;5050222;28;20544;-77
2023/06/29 08:10:16;;;;;;;3.60;3.30;;;24.10;99.90;;;;;;5063442;28;20478;-78
2023/06/29 08:12:44;;;;;;;4.00;3.70;;;24.10;99.90;;;;;;5054786;28;20778;-79
2023/06/29 08:15:11;;;;;;;5.03;3.73;;;24.10;99.90;;;;;;5053592;28;20529;-80
2023/06/29 08:17:38;;;;;;;6.17;4.10;;;24.10;99.90;;;;;;5053936;28;20533;-78
2023/06/29 08:20:09;;;;;;;4.90;3.07;;;24.20;99.90;;;;;;5051577;28;20478;-77
2023/06/29 08:22:36;;;;;;;4.63;3.30;;;24.20;99.90;;;;;;5053662;28;20473;-76
2023/06/29 08:25:04;;;;;;;3.53;2.97;;;24.20;99.90;;;;;;5053586;28;20466;-79
2023/06/29 08:27:32;;;;;;;3.03;2.83;;;24.20;99.90;;;;;;5052731;28;20473;-79
2023/06/29 08:30:00;;;;;;;3.73;2.60;;;24.20;99.90;;;;;;5053767;28;20991;-79
2023/06/29 08:32:27;;;;;;;3.27;2.63;;;24.20;99.90;;;;;;5072573;28;20786;-79
2023/06/29 08:34:55;;;;;;;3.33;2.70;;;24.20;99.90;;;;;;5073511;28;20956;-80
2023/06/29 08:37:22;;;;;;;2.70;2.50;;;24.20;99.90;;;;;;5072974;28;20479;-79
2023/06/29 08:39:49;;;;;;;2.77;2.57;;;24.30;99.90;;;;;;5073639;28;20470;-80
2023/06/29 08:42:16;;;;;;;2.60;2.40;;;24.30;99.90;;;;;;5072584;28;20497;-77
2023/06/29 08:44:46;;;;;;;3.90;2.50;;;24.30;99.90;;;;;;5062638;28;20485;-77
2023/06/29 08:47:17;;;;;;;2.57;2.37;;;24.30;99.90;;;;;;5065647;28;20473;-78
2023/06/29 08:49:46;;;;;;;2.47;2.30;;;24.30;99.90;;;;;;5074454;28;20523;-78
2023/06/29 08:52:20;;;;;;;2.70;2.23;;;24.30;99.90;;;;;;5073781;28;20474;-77
2023/06/29 08:54:49;;;;;;;5.40;3.30;;;24.30;99.90;;;;;;5061351;28;20451;-77
2023/06/29 08:57:16;;;;;;;2.77;2.57;;;24.30;99.90;;;;;;5053480;28;20478;-77
2023/06/29 08:59:44;;;;;;;4.03;3.73;;;24.30;99.90;;;;;;5053532;28;20489;-79
2023/06/29 09:02:12;;;;;;;4.60;4.30;;;24.30;99.90;;;;;;5052887;28;20475;-79
2023/06/29 09:04:44;;;;;;;2.90;2.60;;;24.20;99.90;;;;;;5053056;28;20515;-79
2023/06/29 09:07:12;;;;;;;4.10;3.70;;;24.30;99.90;;;;;;5053635;28;20467;-77
2023/06/29 09:09:39;;;;;;;4.77;4.03;;;24.30;99.90;;;;;;5053214;28;20467;-77
2023/06/29 09:12:07;;;;;;;2.73;2.53;;;24.40;99.90;;;;;;5053585;28;20969;-78
2023/06/29 09:14:42;;;;;;;2.70;2.30;;;24.40;99.90;;;;;;5052429;28;20535;-76
2023/06/29 09:17:14;;;;;;;6.03;3.03;;;24.50;99.90;;;;;;5056521;28;20542;-79
2023/06/29 09:19:50;;;;;;;4.70;3.47;;;24.50;99.90;;;;;;5057293;28;20495;-79
2023/06/29 09:22:21;;;;;;;3.20;3.00;;;24.40;99.90;;;;;;5057567;28;20471;-79
2023/06/29 09:24:48;;;;;;;3.10;2.53;;;24.50;99.90;;;;;;5056687;28;20814;-77
2023/06/29 09:27:17;;;;;;;4.33;3.20;;;24.50;99.90;;;;;;5057654;28;20987;-79
2023/06/29 09:29:51;;;;;;;3.83;3.53;;;24.50;99.90;;;;;;5057057;28;20495;-77
2023/06/29 09:32:18;;;;;;;4.13;2.47;;;24.50;99.90;;;;;;5057217;28;20471;-79
2023/06/29 09:34:48;;;;;;;4.67;2.73;;;24.50;99.90;;;;;;5056858;28;20513;-77
2023/06/29 09:37:16;;;;;;;2.77;2.20;;;24.50;99.90;;;;;;5057055;28;21049;-77
2023/06/29 09:39:59;;;;;;;2.40;2.20;;;24.50;99.90;;;;;;5054914;28;20858;-77
2023/06/29 09:42:28;;;;;;;3.00;2.57;;;24.50;99.90;;;;;;5057315;28;20530;-79
2023/06/29 09:45:00;;;;;;;4.03;3.73;;;24.60;99.90;;;;;;5057648;28;20458;-77
2023/06/29 09:47:27;;;;;;;4.40;3.50;;;24.60;99.80;;;;;;5068621;28;20462;-79
2023/06/29 09:49:55;;;;;;;3.10;2.90;;;24.60;99.90;;;;;;5076504;28;20496;-78
2023/06/29 09:52:22;;;;;;;3.47;3.17;;;24.80;99.90;;;;;;5076641;28;20504;-78
2023/06/29 09:54:50;;;;;;;6.27;2.70;;;24.90;99.90;;;;;;5075998;28;20502;-78
2023/06/29 09:57:21;;;;;;;2.60;2.47;;;24.90;99.60;;;;;;5077531;28;20469;-78
2023/06/29 09:59:49;;;;;;;3.27;2.50;;;25.00;99.70;;;;;;5075840;28;20462;-78
2023/06/29 10:02:22;;;;;;;2.47;2.27;;;25.10;99.50;;;;;;5076219;28;20462;-78
2023/06/29 10:04:49;;;;;;;2.63;2.40;;;25.20;99.40;;;;;;5075861;28;20862;-80
2023/06/29 10:07:20;;;;;;;3.23;2.30;;;25.20;99.30;;;;;;5076498;28;20535;-80
2023/06/29 10:09:50;;;;;;;3.20;3.00;;;25.30;99.30;;;;;;5075527;28;20470;-78
2023/06/29 10:12:18;;;;;;;4.30;2.40;;;25.30;99.20;;;;;;5075851;28;20474;-80
2023/06/29 10:14:50;;;;;;;4.13;2.90;;;25.40;99.30;;;;;;5075882;28;20481;-80
2023/06/29 10:17:27;;;;;;;2.87;2.63;;;25.40;99.00;;;;;;5076110;28;20775;-80
2023/06/29 10:19:55;;;;;;;2.93;2.63;;;25.50;98.80;;;;;;5075369;28;20441;-80
2023/06/29 10:22:25;;;;;;;2.43;2.20;;;25.50;98.80;;;;;;5076091;28;20470;-80
2023/06/29 10:24:55;;;;;;;3.03;2.77;;;25.60;98.90;;;;;;5075149;28;20857;-80
2023/06/29 10:27:25;;;;;;;2.83;2.60;;;25.60;99.00;;;;;;5075421;28;20531;-77
2023/06/29 10:29:53;;;;;;;2.70;2.50;;;25.60;99.10;;;;;;5074746;28;20542;-79
2023/06/29 10:32:32;;;;;;;2.60;2.40;;;25.60;99.10;;;;;;5075754;28;20474;-77
2023/06/29 10:35:08;;;;;;;2.57;2.37;;;25.70;98.40;;;;;;5081173;22;20536;-78
2023/06/29 10:37:38;;;;;;;3.03;2.60;;;25.70;98.30;;;;;;5024879;28;20523;-78
2023/06/29 10:40:14;;;;;;;3.00;1.87;;;25.70;97.70;;;;;;5015962;28;20469;-78
2023/06/29 10:42:55;;;;;;;2.37;2.20;;;25.80;97.40;;;;;;5035298;28;20468;-77
2023/06/29 10:45:42;;;;;;;4.80;2.20;;;25.80;97.50;;;;;;5035390;28;20472;-79
2023/06/29 10:48:12;;;;;;;2.17;2.07;;;25.80;97.80;;;;;;5035934;28;20468;-78
2023/06/29 10:50:43;;;;;;;3.10;2.77;;;25.90;98.00;;;;;;5034804;28;21070;-78
2023/06/29 10:53:14;;;;;;;3.60;2.80;;;25.90;98.00;;;;;;5035755;28;20808;-79
2023/06/29 10:55:43;;;;;;;2.80;2.50;;;26.00;98.10;;;;;;5035228;28;20464;-79
2023/06/29 10:58:19;;;;;;;3.37;3.00;;;26.00;98.30;;;;;;5035444;28;20468;-79
2023/06/29 11:00:49;;;;;;;3.10;2.80;;;26.20;97.20;;;;;;5034028;28;20467;-79
2023/06/29 11:03:17;;;;;;;4.23;2.83;;;26.10;97.20;;;;;;5032035;28;20478;-79
2023/06/29 11:05:45;;;;;;;3.43;3.13;;;26.20;96.80;;;;;;5034128;28;20460;-81
2023/06/29 11:08:13;;;;;;;3.13;2.87;;;26.20;96.80;;;;;;5034957;28;20541;-79
2023/06/29 11:10:40;;;;;;;3.43;3.10;;;26.30;96.80;;;;;;5033570;28;20812;-79
2023/06/29 11:13:11;;;;;;;3.57;3.27;;;26.40;96.50;;;;;;5035258;28;21000;-78
2023/06/29 11:15:39;;;;;;;3.40;2.70;;;26.40;95.80;;;;;;5033966;28;20538;-79
2023/06/29 11:18:09;;;;;;;3.60;3.30;;;26.40;95.50;;;;;;5035018;28;20496;-82
2023/06/29 11:20:40;;;;;;;3.10;2.90;;;26.50;95.60;;;;;;5034320;28;20531;-81
2023/06/29 11:23:08;;;;;;;3.60;2.80;;;26.50;95.80;;;;;;5034838;28;20991;-79
2023/06/29 11:25:37;;;;;;;3.17;2.97;;;26.60;95.90;;;;;;5033467;28;20472;-79
2023/06/29 11:28:05;;;;;;;3.30;3.00;;;26.60;95.80;;;;;;5023335;28;20470;-79
2023/06/29 11:30:38;;;;;;;4.97;4.30;;;26.60;95.80;;;;;;5033065;28;20477;-79
2023/06/29 11:33:06;;;;;;;4.27;4.00;;;26.70;95.90;;;;;;5034410;28;20476;-79
2023/06/29 11:35:34;;;;;;;6.23;5.73;;;26.70;95.70;;;;;;5034483;28;20559;-77
2023/06/29 11:38:01;;;;;;;5.10;4.70;;;26.70;95.90;;;;;;5033691;28;20454;-78
2023/06/29 11:40:30;;;;;;;7.70;6.90;;;26.70;95.70;;;;;;5033812;28;20509;-77
2023/06/29 11:42:59;;;;;;;10.33;9.33;;;26.80;95.80;;;;;;5033927;28;20811;-81
2023/06/29 11:45:26;;;;;;;5.43;4.93;;;26.80;96.00;;;;;;5034096;28;20478;-80
2023/06/29 11:47:55;;;;;;;10.27;7.70;;;26.90;95.90;;;;;;5033111;28;20505;-79
2023/06/29 11:50:23;;;;;;;10.03;8.90;;;26.90;95.80;;;;;;5034783;28;20964;-79
2023/06/29 11:52:52;;;;;;;6.93;5.73;;;26.90;96.00;;;;;;5033960;28;20536;-79
2023/06/29 11:55:20;;;;;;;3.97;3.67;;;26.90;95.70;;;;;;5033788;28;20523;-78
2023/06/29 11:57:53;;;;;;;6.07;5.53;;;26.90;95.90;;;;;;5033382;28;20787;-78
2023/06/29 12:00:30;;;;;;;5.40;4.90;;;26.90;95.70;;;;;;5034221;28;20469;-80
2023/06/29 12:02:58;;;;;;;11.40;10.27;;;26.90;95.60;;;;;;5033416;28;20951;-80
2023/06/29 12:05:59;;;;;;;7.17;6.57;;;26.90;95.90;;;;;;5034340;28;20481;-78
2023/06/29 12:08:26;;;;;;;10.50;9.60;;;26.90;95.70;;;;;;5033940;28;20468;-78
2023/06/29 12:10:53;;;;;;;8.60;7.10;;;26.80;95.80;;;;;;5034172;28;20450;-79
2023/06/29 12:13:23;;;;;;;5.90;5.43;;;26.80;96.00;;;;;;5033294;28;20464;-78
2023/06/29 12:15:51;;;;;;;7.30;6.60;;;26.80;96.10;;;;;;5032843;28;20533;-78
2023/06/29 12:18:18;;;;;;;11.07;8.30;;;26.80;96.30;;;;;;5025245;28;20480;-79
2023/06/29 12:20:49;;;;;;;6.57;5.90;;;26.80;96.20;;;;;;5011628;28;20501;-79
2023/06/29 12:23:16;;;;;;;6.60;6.00;;;26.70;96.20;;;;;;5002099;28;20484;-80
2023/06/29 12:25:45;;;;;;;9.87;7.60;;;26.70;96.30;;;;;;5007990;28;20522;-79
2023/06/29 12:28:15;;;;;;;7.90;7.20;;;26.80;96.20;;;;;;5012959;28;20476;-78
2023/06/29 12:30:44;;;;;;;7.10;6.50;;;26.80;96.40;;;;;;5013257;28;20851;-78
2023/06/29 12:33:14;;;;;;;4.60;4.20;;;26.80;96.40;;;;;;5013635;28;20884;-78
2023/06/29 12:35:41;;;;;;;6.03;5.30;;;26.80;95.70;;;;;;5012591;28;20506;-78
2023/06/29 12:38:09;;;;;;;7.40;6.63;;;26.80;95.70;;;;;;5013650;28;20813;-78
2023/06/29 12:40:40;;;;;;;5.33;4.87;;;26.80;95.80;;;;;;5012769;28;20566;-78
2023/06/29 12:43:08;;;;;;;5.57;5.07;;;26.90;95.80;;;;;;5013449;28;20465;-79
2023/06/29 12:45:35;;;;;;;5.53;5.13;;;26.90;96.00;;;;;;5012783;28;20515;-79
2023/06/29 12:48:03;;;;;;;7.30;6.70;;;26.80;96.00;;;;;;5013726;28;21012;-79
2023/06/29 12:50:33;;;;;;;6.53;6.03;;;26.80;96.00;;;;;;5012821;28;20480;-79
2023/06/29 12:53:00;;;;;;;8.00;7.20;;;26.80;96.10;;;;;;5013043;28;20539;-79
2023/06/29 12:55:27;;;;;;;7.50;6.80;;;26.90;96.20;;;;;;5012290;28;20989;-79